Time;durP1;ratioP1;P1;durP2;ratioP2;P2;SDS_P1;SDS_P2;PMS_P1;PMS_P2;Temp;Humidity;BMP_temperature;BMP_pressure;BME280_temperature;BME280_humidity;BME280_pressure;Samples;Min_cycle;Max_cycle;Signal;HPM_P1;HPM_P2
2023/10/13 00:00:41;;;;;;;7.60;3.43;;;;;;;;;;5016181;28;20217;-75
2023/10/13 00:03:45;;;;;;;7.37;3.67;;;;;;;;;;5017076;28;20514;-75
2023/10/13 00:07:08;;;;;;;7.23;4.00;;;;;;;;;;5016083;28;20527;-75
2023/10/13 00:10:33;;;;;;;8.10;4.30;;;;;;;;;;5016426;28;20182;-74
2023/10/13 00:13:49;;;;;;;9.23;4.47;;;;;;;;;;5004684;28;20189;-75
2023/10/13 00:20:37;;;;;;;9.87;3.60;;;;;;;;;;5015130;28;20225;-75
2023/10/13 00:23:53;;;;;;;12.23;3.90;;;;;;;;;;5002927;28;20217;-75
2023/10/13 00:26:57;;;;;;;7.13;3.57;;;;;;;;;;5004222;28;20177;-75
2023/10/13 00:33:41;;;;;;;6.77;3.90;;;;;;;;;;4996413;28;20550;-75
2023/10/13 00:37:11;;;;;;;9.63;3.90;;;;;;;;;;5015971;28;20526;-75
2023/10/13 00:40:41;;;;;;;6.90;3.90;;;;;;;;;;5015743;28;20214;-75
2023/10/13 00:44:26;;;;;;;11.13;4.70;;;;;;;;;;5015205;28;20629;-75
2023/10/13 00:47:49;;;;;;;8.67;3.80;;;;;;;;;;4983424;28;20190;-75
2023/10/13 00:50:56;;;;;;;8.87;4.20;;;;;;;;;;4995231;28;20182;-75
2023/10/13 00:54:07;;;;;;;8.37;4.23;;;;;;;;;;4995384;28;20190;-75
2023/10/13 00:57:29;;;;;;;8.80;3.87;;;;;;;;;;4996390;28;20186;-75
2023/10/13 01:00:46;;;;;;;7.60;3.93;;;;;;;;;;4995239;28;20225;-76
2023/10/13 01:03:55;;;;;;;6.63;3.90;;;;;;;;;;4995141;28;20190;-76
2023/10/13 01:07:02;;;;;;;5.90;3.80;;;;;;;;;;4998365;28;20205;-75
2023/10/13 01:10:15;;;;;;;6.63;3.40;;;;;;;;;;5003469;28;20182;-75
2023/10/13 01:13:21;;;;;;;5.63;3.43;;;;;;;;;;5015166;28;20181;-75
2023/10/13 01:16:26;;;;;;;8.60;3.50;;;;;;;;;;5003386;28;20190;-75
2023/10/13 01:19:38;;;;;;;7.67;3.37;;;;;;;;;;5003435;28;20177;-75
2023/10/13 01:22:42;;;;;;;4.90;3.33;;;;;;;;;;4991812;28;20601;-75
2023/10/13 01:25:48;;;;;;;6.43;3.60;;;;;;;;;;5015183;28;20186;-75
2023/10/13 01:28:57;;;;;;;5.93;3.47;;;;;;;;;;4992339;28;20193;-75
2023/10/13 01:32:01;;;;;;;6.80;3.50;;;;;;;;;;5014406;28;20213;-75
2023/10/13 01:35:06;;;;;;;6.77;3.67;;;;;;;;;;5003477;28;20181;-76
2023/10/13 01:38:10;;;;;;;7.57;3.50;;;;;;;;;;5003700;28;20189;-76
2023/10/13 01:41:16;;;;;;;6.27;3.53;;;;;;;;;;4992267;28;20236;-76
2023/10/13 01:44:24;;;;;;;8.10;3.53;;;;;;;;;;4992014;28;20186;-75
2023/10/13 01:47:28;;;;;;;7.63;3.57;;;;;;;;;;5002960;28;20185;-75
2023/10/13 01:50:36;;;;;;;7.63;3.43;;;;;;;;;;5002977;28;20182;-75
2023/10/13 01:53:43;;;;;;;5.47;3.60;;;;;;;;;;5015022;28;20534;-75
2023/10/13 01:56:48;;;;;;;6.93;4.10;;;;;;;;;;5014291;28;20193;-75
2023/10/13 01:59:54;;;;;;;10.50;4.23;;;;;;;;;;5002579;28;20190;-75
2023/10/13 02:03:00;;;;;;;9.60;4.20;;;;;;;;;;5002993;28;20225;-75
2023/10/13 02:06:05;;;;;;;4.60;3.27;;;;;;;;;;5002873;28;20549;-75
2023/10/13 02:12:17;;;;;;;8.07;4.00;;;;;;;;;;5014607;28;20213;-75
2023/10/13 02:15:25;;;;;;;7.67;3.73;;;;;;;;;;5003063;28;20186;-75
2023/10/13 02:18:43;;;;;;;6.33;3.63;;;;;;;;;;5003013;28;20186;-75
2023/10/13 02:21:58;;;;;;;7.10;3.30;;;;;;;;;;4994723;28;20234;-76
2023/10/13 02:25:05;;;;;;;6.17;3.67;;;;;;;;;;5013604;28;20209;-75
2023/10/13 02:28:13;;;;;;;6.03;3.27;;;;;;;;;;5002330;28;20550;-75
2023/10/13 02:31:19;;;;;;;7.80;3.50;;;;;;;;;;4991537;28;20213;-75
2023/10/13 02:34:23;;;;;;;5.67;3.63;;;;;;;;;;5002120;28;20185;-75
2023/10/13 02:37:27;;;;;;;6.83;3.63;;;;;;;;;;5014071;28;20189;-76
2023/10/13 02:40:35;;;;;;;9.20;3.70;;;;;;;;;;5013721;28;20213;-76
2023/10/13 02:43:39;;;;;;;5.33;3.33;;;;;;;;;;4990989;28;20186;-76
2023/10/13 02:46:43;;;;;;;8.27;3.73;;;;;;;;;;5002008;28;20189;-75
2023/10/13 02:49:47;;;;;;;6.73;3.73;;;;;;;;;;5014174;28;20185;-76
2023/10/13 02:52:52;;;;;;;10.17;3.43;;;;;;;;;;5013834;28;20216;-76
2023/10/13 02:55:58;;;;;;;7.07;3.80;;;;;;;;;;5012822;28;20201;-76
2023/10/13 02:59:06;;;;;;;8.07;3.97;;;;;;;;;;5012813;28;20185;-76
2023/10/13 03:02:25;;;;;;;9.33;3.97;;;;;;;;;;5001533;28;20237;-77
2023/10/13 03:05:35;;;;;;;8.43;3.70;;;;;;;;;;5001506;28;20182;-76
2023/10/13 03:08:39;;;;;;;6.43;3.60;;;;;;;;;;5014102;28;20194;-76
2023/10/13 03:11:50;;;;;;;6.10;3.57;;;;;;;;;;5003532;28;20542;-77
2023/10/13 03:14:57;;;;;;;7.97;3.10;;;;;;;;;;5018017;28;20178;-77
2023/10/13 03:18:02;;;;;;;9.40;4.17;;;;;;;;;;5017336;28;20190;-77
2023/10/13 03:21:07;;;;;;;8.90;3.80;;;;;;;;;;5016591;28;20217;-76
2023/10/13 03:24:13;;;;;;;5.40;3.00;;;;;;;;;;5005066;28;20684;-77
2023/10/13 03:27:23;;;;;;;7.27;3.60;;;;;;;;;;5016425;28;20189;-77
2023/10/13 03:30:35;;;;;;;5.87;3.00;;;;;;;;;;5017084;28;20181;-77
2023/10/13 03:33:44;;;;;;;8.63;3.90;;;;;;;;;;5004846;28;20185;-77
2023/10/13 03:36:58;;;;;;;11.33;3.47;;;;;;;;;;5016797;28;20190;-77
2023/10/13 03:40:33;;;;;;;7.87;3.30;;;;;;;;;;5016305;28;20656;-77
2023/10/13 03:43:31;;;;;;;9.10;3.50;;;;;;;;;;5016848;28;20193;-77
2023/10/13 03:46:40;;;;;;;5.53;3.03;;;;;;;;;;5016883;28;20533;-77
2023/10/13 03:49:45;;;;;;;6.23;3.10;;;;;;;;;;5016329;28;20613;-77
2023/10/13 03:52:49;;;;;;;10.07;3.23;;;;;;;;;;5016097;28;20217;-77
2023/10/13 03:56:07;;;;;;;8.37;3.13;;;;;;;;;;5015514;28;20196;-77
2023/10/13 04:02:21;;;;;;;9.13;3.00;;;;;;;;;;5016486;28;20233;-76
2023/10/13 04:08:47;;;;;;;4.60;2.63;;;;;;;;;;5016377;28;20182;-77
2023/10/13 04:15:22;;;;;;;6.37;3.20;;;;;;;;;;5004091;28;20182;-77
2023/10/13 04:18:34;;;;;;;9.23;3.33;;;;;;;;;;5015121;28;20182;-77
2023/10/13 04:28:15;;;;;;;6.60;3.03;;;;;;;;;;5015485;28;20652;-76
2023/10/13 04:31:39;;;;;;;7.47;3.00;;;;;;;;;;5015055;28;20214;-77
2023/10/13 04:34:46;;;;;;;6.50;3.13;;;;;;;;;;5014839;28;20186;-77
2023/10/13 04:37:54;;;;;;;7.90;2.80;;;;;;;;;;5015590;28;20185;-76
2023/10/13 04:41:01;;;;;;;6.53;2.60;;;;;;;;;;5015365;28;20186;-77
2023/10/13 04:47:29;;;;;;;7.87;2.93;;;;;;;;;;5015141;28;20522;-77
2023/10/13 04:50:41;;;;;;;5.60;3.23;;;;;;;;;;5003119;28;20182;-77
2023/10/13 04:54:04;;;;;;;14.20;3.10;;;;;;;;;;4995408;28;20182;-77
2023/10/13 05:04:22;;;;;;;7.23;2.80;;;;;;;;;;5004274;28;20185;-76
2023/10/13 05:46:20;;;;;;;10.47;3.93;;;;;;;;;;5013363;28;20198;-76
2023/10/13 05:52:19;;;;;;;8.37;3.60;;;;;;;;;;4990415;28;20720;-76
2023/10/13 06:29:19;;;;;;;11.97;4.63;;;;;;;;;;5013692;28;20555;-75
2023/10/13 06:32:26;;;;;;;10.10;4.23;;;;;;;;;;5013400;28;20213;-74
2023/10/13 06:35:31;;;;;;;7.27;4.03;;;;;;;;;;5013463;28;20192;-74
2023/10/13 06:38:36;;;;;;;12.27;5.07;;;;;;;;;;5013598;28;20189;-75
2023/10/13 06:41:41;;;;;;;12.90;6.73;;;;;;;;;;5012742;28;20600;-76
2023/10/13 06:44:46;;;;;;;10.57;7.60;;;;;;;;;;5012885;28;20556;-75
2023/10/13 06:47:53;;;;;;;18.03;7.57;;;;;;;;;;5017564;28;20185;-76
2023/10/13 06:51:03;;;;;;;11.20;6.37;;;;;;;;;;5005281;28;20212;-75
2023/10/13 06:54:19;;;;;;;10.30;5.10;;;;;;;;;;5005287;28;20190;-76
2023/10/13 06:57:23;;;;;;;8.27;4.07;;;;;;;;;;5016941;28;20190;-75
2023/10/13 07:00:41;;;;;;;10.53;4.33;;;;;;;;;;5016836;28;20189;-76
2023/10/13 07:03:52;;;;;;;16.90;4.53;;;;;;;;;;5016641;28;20227;-75
2023/10/13 07:06:56;;;;;;;11.27;3.60;;;;;;;;;;5016828;28;20262;-75
2023/10/13 07:10:00;;;;;;;8.37;3.63;;;;;;;;;;5016942;28;20198;-75
2023/10/13 07:13:07;;;;;;;9.43;4.27;;;;;;;;;;5016945;28;20583;-75
2023/10/13 07:16:15;;;;;;;9.10;3.47;;;;;;;;;;5016091;28;20534;-75
2023/10/13 07:19:21;;;;;;;18.80;3.93;;;;;;;;;;5016957;28;20186;-75
2023/10/13 07:22:27;;;;;;;9.27;3.00;;;;;;;;;;5015094;28;20244;-75
2023/10/13 07:25:34;;;;;;;14.87;3.93;;;;;;;;;;5015907;28;20213;-75
2023/10/13 07:28:45;;;;;;;9.70;3.10;;;;;;;;;;5004844;28;20189;-75
2023/10/13 07:31:50;;;;;;;11.63;3.40;;;;;;;;;;5016296;28;20221;-75
2023/10/13 07:34:58;;;;;;;11.37;3.40;;;;;;;;;;5016759;28;20186;-75
2023/10/13 07:38:06;;;;;;;9.50;3.23;;;;;;;;;;5016794;28;20647;-75
2023/10/13 07:41:15;;;;;;;9.73;3.33;;;;;;;;;;5018009;28;20217;-75
2023/10/13 07:44:31;;;;;;;8.40;2.97;;;;;;;;;;5007652;28;20178;-75
2023/10/13 07:47:35;;;;;;;8.60;3.00;;;;;;;;;;5016554;28;20526;-75
2023/10/13 07:50:40;;;;;;;5.33;2.70;;;;;;;;;;5016202;28;20549;-75
2023/10/13 07:53:48;;;;;;;5.93;2.63;;;;;;;;;;5005221;28;20522;-75
2023/10/13 07:56:54;;;;;;;9.53;2.90;;;;;;;;;;5016438;28;20186;-76
2023/10/13 08:03:34;;;;;;;7.00;3.40;;;;;;;;;;5016177;28;20237;-76
2023/10/13 08:06:43;;;;;;;8.97;2.73;;;;;;;;;;5016600;28;20181;-75
2023/10/13 08:09:51;;;;;;;10.03;2.63;;;;;;;;;;5017114;28;20198;-76
2023/10/13 08:12:57;;;;;;;5.53;2.30;;;;;;;;;;5016597;28;20232;-75
2023/10/13 08:16:09;;;;;;;6.43;2.50;;;;;;;;;;5020470;28;20186;-75
2023/10/13 08:19:15;;;;;;;8.87;2.60;;;;;;;;;;5019006;28;20202;-75
2023/10/13 08:35:34;;;;;;;5.53;2.40;;;;;;;;;;5018719;28;20218;-76
2023/10/13 08:39:46;;;;;;;8.67;2.87;;;;;;;;;;5013400;28;20210;-75
2023/10/13 08:42:15;;;;;;;6.67;2.43;;;;;;;;;;4987678;28;20230;-75
2023/10/13 08:48:31;;;;;;;6.80;2.30;;;;;;;;;;4997574;28;20185;-75
2023/10/13 08:52:04;;;;;;;11.70;2.80;;;;;;;;;;5017824;28;20230;-76
2023/10/13 08:55:37;;;;;;;8.00;2.57;;;;;;;;;;5009159;28;20217;-75
2023/10/13 09:01:59;;;;;;;12.63;4.33;;;;;;;;;;4999272;28;20224;-75
2023/10/13 09:05:36;;;;;;;7.93;2.60;;;;;;;;;;4986404;28;20198;-75
2023/10/13 09:08:35;;;;;;;7.50;2.50;;;;;;;;;;4998835;28;20184;-76
2023/10/13 09:11:49;;;;;;;9.90;2.60;;;;;;;;;;4999864;28;20226;-75
2023/10/13 09:14:58;;;;;;;8.23;2.55;;;;;;;;;;4986543;28;20526;-76
2023/10/13 09:18:15;;;;;;;8.85;2.90;;;;;;;;;;4998313;28;20184;-76
2023/10/13 09:21:43;;;;;;;9.75;2.95;;;;;;;;;;5009010;28;20578;-75
2023/10/13 09:24:51;;;;;;;10.38;2.65;;;;;;;;;;5004923;28;20205;-76
2023/10/13 09:27:56;;;;;;;11.70;2.88;;;;;;;;;;5016064;28;20187;-76
2023/10/13 09:31:00;;;;;;;10.10;3.10;;;;;;;;;;5005574;28;20200;-75
2023/10/13 09:34:09;;;;;;;10.15;2.70;;;;;;;;;;5016667;28;20190;-77
2023/10/13 09:37:20;;;;;;;9.30;2.83;;;;;;;;;;5015837;28;20215;-75
2023/10/13 09:40:25;;;;;;;6.68;2.33;;;;;;;;;;5015646;28;20188;-75
2023/10/13 09:43:31;;;;;;;6.97;2.58;;;;;;;;;;5016356;28;20220;-76
2023/10/13 09:46:41;;;;;;;10.32;2.90;;;;;;;;;;5017388;28;20530;-75
2023/10/13 09:49:48;;;;;;;7.55;2.40;;;;;;;;;;5016862;28;20179;-75
2023/10/13 09:52:54;;;;;;;13.30;2.72;;;;;;;;;;5015869;28;20224;-76
2023/10/13 09:56:20;;;;;;;12.00;2.70;;;;;;;;;;5016729;28;20186;-75
2023/10/13 09:59:35;;;;;;;8.90;2.30;;;;;;;;;;5013628;28;20206;-76
2023/10/13 10:02:44;;;;;;;8.35;2.38;;;;;;;;;;5014606;28;20237;-76
2023/10/13 10:06:05;;;;;;;6.28;2.20;;;;;;;;;;5014652;28;20189;-76
2023/10/13 10:09:14;;;;;;;11.63;2.53;;;;;;;;;;5013802;28;20177;-77
2023/10/13 10:12:38;;;;;;;11.30;2.67;;;;;;;;;;5014651;28;20232;-76
2023/10/13 10:15:47;;;;;;;5.82;2.15;;;;;;;;;;5014002;28;20656;-76
2023/10/13 10:19:00;;;;;;;11.55;2.60;;;;;;;;;;4991359;28;20185;-76
2023/10/13 10:22:17;;;;;;;7.00;2.17;;;;;;;;;;5013485;28;20221;-76
2023/10/13 10:25:29;;;;;;;9.45;2.38;;;;;;;;;;5014153;28;20206;-76
2023/10/13 10:28:42;;;;;;;8.10;2.38;;;;;;;;;;5014310;28;20182;-76
2023/10/13 10:31:47;;;;;;;8.10;2.42;;;;;;;;;;5013757;28;20221;-76
2023/10/13 10:35:07;;;;;;;12.77;2.50;;;;;;;;;;5013992;28;20526;-76
2023/10/13 10:38:23;;;;;;;7.57;2.30;;;;;;;;;;5014278;28;20182;-76
2023/10/13 10:41:44;;;;;;;9.00;2.25;;;;;;;;;;5013466;28;20229;-76
2023/10/13 10:44:55;;;;;;;8.23;2.30;;;;;;;;;;5013887;28;20571;-76
2023/10/13 10:47:59;;;;;;;8.23;2.28;;;;;;;;;;5013583;28;20186;-76
2023/10/13 10:51:13;;;;;;;5.10;2.30;;;;;;;;;;5013412;28;20190;-76
2023/10/13 10:54:19;;;;;;;17.70;2.55;;;;;;;;;;5014414;28;20182;-76
2023/10/13 10:57:28;;;;;;;12.43;2.00;;;;;;;;;;5014312;28;20192;-76
2023/10/13 11:00:45;;;;;;;7.85;2.38;;;;;;;;;;4990901;28;20189;-75
2023/10/13 11:03:57;;;;;;;5.55;1.85;;;;;;;;;;5014551;28;20206;-76
2023/10/13 11:07:01;;;;;;;13.18;2.25;;;;;;;;;;5012967;28;20630;-76
2023/10/13 11:10:27;;;;;;;12.15;2.00;;;;;;;;;;5013990;28;20199;-76
2023/10/13 11:14:13;;;;;;;5.78;1.90;;;;;;;;;;5013585;28;20192;-76
2023/10/13 11:20:45;;;;;;;8.48;2.63;;;;;;;;;;5013819;28;20185;-76
2023/10/13 11:24:08;;;;;;;6.47;2.33;;;;;;;;;;5013262;28;20580;-76
2023/10/13 11:27:43;;;;;;;6.75;2.40;;;;;;;;;;5001741;28;20523;-76
2023/10/13 11:30:51;;;;;;;9.80;2.30;;;;;;;;;;5013578;28;20191;-76
2023/10/13 11:33:56;;;;;;;8.95;2.28;;;;;;;;;;5017244;28;20188;-76
2023/10/13 11:37:28;;;;;;;10.88;2.13;;;;;;;;;;5017069;28;20187;-76
2023/10/13 11:40:43;;;;;;;7.13;2.17;;;;;;;;;;5017174;28;20182;-76
2023/10/13 11:46:56;;;;;;;6.45;1.98;;;;;;;;;;5016521;28;20194;-76
2023/10/13 11:50:00;;;;;;;6.47;2.50;;;;;;;;;;5016582;28;20184;-77
2023/10/13 11:53:07;;;;;;;7.43;1.88;;;;;;;;;;5016581;28;20243;-77
2023/10/13 11:56:11;;;;;;;11.73;2.35;;;;;;;;;;5016014;28;20183;-77
2023/10/13 11:59:17;;;;;;;6.20;2.17;;;;;;;;;;5015951;28;20548;-76
2023/10/13 12:05:48;;;;;;;13.45;2.65;;;;;;;;;;5016175;28;20186;-77
2023/10/13 12:08:53;;;;;;;7.82;2.33;;;;;;;;;;5016575;28;20193;-77
2023/10/13 12:12:00;;;;;;;9.75;2.45;;;;;;;;;;5016162;28;20711;-77
2023/10/13 12:15:09;;;;;;;13.77;2.45;;;;;;;;;;5004204;28;20193;-77
2023/10/13 12:18:14;;;;;;;9.80;2.25;;;;;;;;;;5015689;28;20192;-76
2023/10/13 12:21:21;;;;;;;7.30;2.17;;;;;;;;;;5015553;28;20225;-77
2023/10/13 12:24:53;;;;;;;9.30;2.70;;;;;;;;;;5016242;28;20236;-77
2023/10/13 12:27:57;;;;;;;8.10;2.38;;;;;;;;;;5016700;28;20186;-77
2023/10/13 12:31:07;;;;;;;9.77;2.20;;;;;;;;;;5016319;28;20186;-77
2023/10/13 12:34:19;;;;;;;13.80;2.55;;;;;;;;;;5016226;28;20178;-77
2023/10/13 12:51:07;;;;;;;7.30;2.50;;;;;;;;;;5014798;28;20195;-77
2023/10/13 12:54:14;;;;;;;9.00;2.60;;;;;;;;;;5014969;28;20179;-77
2023/10/13 12:57:18;;;;;;;7.60;2.47;;;;;;;;;;5015086;28;20186;-77
2023/10/13 13:00:25;;;;;;;8.57;2.38;;;;;;;;;;5015767;28;20185;-77
2023/10/13 13:03:29;;;;;;;12.85;2.60;;;;;;;;;;5015598;28;20186;-77
2023/10/13 13:06:33;;;;;;;7.18;2.50;;;;;;;;;;5015142;28;20189;-77
2023/10/13 13:09:37;;;;;;;9.98;2.55;;;;;;;;;;5015061;28;20213;-77
2023/10/13 13:12:42;;;;;;;6.25;2.50;;;;;;;;;;5015086;28;20225;-77
2023/10/13 13:15:46;;;;;;;9.85;2.50;;;;;;;;;;5014960;28;20182;-77
2023/10/13 13:18:50;;;;;;;6.88;2.55;;;;;;;;;;5014959;28;20186;-77
2023/10/13 13:21:55;;;;;;;8.38;2.33;;;;;;;;;;5014143;28;20218;-77
2023/10/13 13:25:00;;;;;;;5.90;2.20;;;;;;;;;;5002687;28;20233;-77
2023/10/13 13:28:05;;;;;;;10.15;2.25;;;;;;;;;;5014081;28;20190;-77
2023/10/13 13:31:12;;;;;;;9.30;2.30;;;;;;;;;;5013748;28;20178;-77
2023/10/13 13:34:17;;;;;;;11.25;2.50;;;;;;;;;;5014052;28;20182;-77
2023/10/13 13:37:21;;;;;;;6.95;2.05;;;;;;;;;;5014729;28;20194;-76
2023/10/13 13:40:34;;;;;;;5.57;2.60;;;;;;;;;;5015205;28;20181;-77
2023/10/13 13:43:40;;;;;;;6.75;2.30;;;;;;;;;;5014753;28;20182;-77
2023/10/13 13:46:45;;;;;;;6.50;2.15;;;;;;;;;;5013913;28;20182;-77
2023/10/13 13:49:54;;;;;;;8.23;2.55;;;;;;;;;;5014664;28;20192;-77
2023/10/13 13:53:02;;;;;;;6.15;2.15;;;;;;;;;;5014100;28;20227;-77
2023/10/13 13:56:06;;;;;;;5.10;1.85;;;;;;;;;;5014218;28;20176;-78
2023/10/13 13:59:15;;;;;;;9.85;2.53;;;;;;;;;;5014062;28;20188;-77
2023/10/13 14:02:19;;;;;;;9.48;2.10;;;;;;;;;;5014260;28;20220;-76
2023/10/13 14:05:23;;;;;;;9.13;2.30;;;;;;;;;;5013234;28;20214;-76
2023/10/13 14:08:27;;;;;;;8.60;2.10;;;;;;;;;;5014072;28;20189;-76
2023/10/13 14:15:03;;;;;;;6.43;2.35;;;;;;;;;;5013960;28;20188;-76
2023/10/13 14:18:14;;;;;;;13.63;2.60;;;;;;;;;;5014320;28;20188;-76
2023/10/13 14:21:18;;;;;;;8.52;2.10;;;;;;;;;;5013450;28;20714;-76
2023/10/13 14:24:27;;;;;;;8.68;2.13;;;;;;;;;;5013746;28;20702;-77
2023/10/13 14:27:31;;;;;;;9.45;2.50;;;;;;;;;;5002108;28;20182;-77
2023/10/13 14:30:36;;;;;;;6.78;2.08;;;;;;;;;;5013842;28;20185;-77
2023/10/13 14:33:39;;;;;;;7.90;2.63;;;;;;;;;;5013823;28;20183;-77
2023/10/13 14:36:48;;;;;;;13.15;2.58;;;;;;;;;;5013350;28;20191;-76
2023/10/13 14:39:56;;;;;;;7.65;2.42;;;;;;;;;;5013865;28;20211;-77
2023/10/13 14:43:00;;;;;;;9.63;2.25;;;;;;;;;;5013701;28;20235;-76
2023/10/13 14:46:08;;;;;;;6.18;2.42;;;;;;;;;;5012911;28;20673;-77
2023/10/13 14:49:14;;;;;;;4.72;2.20;;;;;;;;;;5013576;28;20183;-77
2023/10/13 14:52:18;;;;;;;6.85;2.30;;;;;;;;;;5012730;28;20225;-77
2023/10/13 14:55:37;;;;;;;10.90;2.35;;;;;;;;;;5013779;28;20619;-77
2023/10/13 14:58:43;;;;;;;7.18;2.05;;;;;;;;;;5013304;28;20665;-77
2023/10/13 15:01:49;;;;;;;7.22;2.40;;;;;;;;;;5013704;28;20220;-77
2023/10/13 15:04:53;;;;;;;9.02;2.22;;;;;;;;;;5013101;28;20557;-77
2023/10/13 15:07:57;;;;;;;9.52;2.20;;;;;;;;;;5015038;28;20188;-76
2023/10/13 15:11:13;;;;;;;7.10;2.10;;;;;;;;;;5017659;28;20195;-77
2023/10/13 15:14:20;;;;;;;12.93;2.80;;;;;;;;;;5016827;28;20183;-77
2023/10/13 15:17:24;;;;;;;18.23;4.78;;;;;;;;;;5005828;28;20199;-77
2023/10/13 15:20:28;;;;;;;16.92;4.00;;;;;;;;;;5017134;28;20674;-77
2023/10/13 15:23:33;;;;;;;11.10;5.50;;;;;;;;;;5017587;28;20219;-76
2023/10/13 15:26:41;;;;;;;11.20;4.70;;;;;;;;;;5016939;28;20187;-76
2023/10/13 15:29:50;;;;;;;11.23;2.10;;;;;;;;;;5017623;28;20185;-76
2023/10/13 15:32:57;;;;;;;10.00;2.40;;;;;;;;;;5005513;28;20222;-76
2023/10/13 15:36:01;;;;;;;8.52;2.70;;;;;;;;;;5009217;28;20259;-76
2023/10/13 15:39:08;;;;;;;20.55;2.92;;;;;;;;;;5019726;28;20188;-76
2023/10/13 15:42:14;;;;;;;11.10;2.50;;;;;;;;;;5018868;28;20237;-76
2023/10/13 15:45:18;;;;;;;13.57;3.30;;;;;;;;;;5018490;28;20224;-75
2023/10/13 15:48:22;;;;;;;13.33;2.57;;;;;;;;;;5018595;28;20184;-76
2023/10/13 15:51:26;;;;;;;9.83;2.83;;;;;;;;;;5019392;28;20220;-76
2023/10/13 15:54:31;;;;;;;9.23;2.30;;;;;;;;;;5008641;28;20178;-76
2023/10/13 15:57:36;;;;;;;9.60;2.50;;;;;;;;;;5007963;28;20515;-76
2023/10/13 16:00:40;;;;;;;9.27;2.60;;;;;;;;;;5020475;28;20193;-77
2023/10/13 16:03:51;;;;;;;8.23;2.20;;;;;;;;;;5019306;28;20190;-76
2023/10/13 16:06:55;;;;;;;12.83;2.67;;;;;;;;;;5020472;28;20637;-77
2023/10/13 16:09:59;;;;;;;6.07;2.30;;;;;;;;;;5020245;28;20582;-77
2023/10/13 16:13:05;;;;;;;7.43;2.40;;;;;;;;;;5020727;28;20702;-77
2023/10/13 16:16:22;;;;;;;7.00;2.50;;;;;;;;;;5020892;28;20186;-76
2023/10/13 16:19:27;;;;;;;8.23;2.27;;;;;;;;;;5020859;28;20188;-77
2023/10/13 16:22:32;;;;;;;6.33;2.17;;;;;;;;;;5020301;28;20571;-77
2023/10/13 16:25:36;;;;;;;8.57;2.13;;;;;;;;;;5020142;28;20223;-76
2023/10/13 16:28:40;;;;;;;32.17;3.33;;;;;;;;;;5019955;28;20193;-77
2023/10/13 16:31:45;;;;;;;12.77;2.77;;;;;;;;;;5020793;28;20226;-76
2023/10/13 16:34:50;;;;;;;5.37;2.03;;;;;;;;;;5009165;28;20197;-76
2023/10/13 16:37:54;;;;;;;8.57;2.23;;;;;;;;;;5021410;28;20522;-77
2023/10/13 16:40:58;;;;;;;8.27;2.43;;;;;;;;;;5020696;28;20181;-76
2023/10/13 16:44:09;;;;;;;14.00;2.53;;;;;;;;;;5019451;28;20185;-77
2023/10/13 16:47:13;;;;;;;10.73;2.87;;;;;;;;;;5019959;28;20182;-76
2023/10/13 16:50:18;;;;;;;20.30;2.40;;;;;;;;;;5020110;28;20182;-76
2023/10/13 16:53:22;;;;;;;12.23;2.20;;;;;;;;;;5019968;28;20192;-76
2023/10/13 16:56:26;;;;;;;8.03;2.50;;;;;;;;;;5019296;28;20186;-77
2023/10/13 16:59:31;;;;;;;30.20;3.50;;;;;;;;;;5020120;28;20185;-76
2023/10/13 17:02:35;;;;;;;18.90;3.47;;;;;;;;;;5020119;28;20225;-76
2023/10/13 17:05:45;;;;;;;7.60;2.27;;;;;;;;;;5019505;28;20220;-76
2023/10/13 17:08:52;;;;;;;9.13;2.50;;;;;;;;;;5019373;28;20529;-75
2023/10/13 17:11:56;;;;;;;7.00;2.77;;;;;;;;;;5018225;28;20221;-76
2023/10/13 17:15:03;;;;;;;10.47;2.50;;;;;;;;;;5017805;28;20190;-75
2023/10/13 17:18:08;;;;;;;7.33;2.10;;;;;;;;;;5019050;28;20652;-76
2023/10/13 17:21:21;;;;;;;9.63;2.60;;;;;;;;;;5017500;28;20181;-75
2023/10/13 17:24:27;;;;;;;7.17;2.63;;;;;;;;;;5017696;28;20205;-76
2023/10/13 17:27:36;;;;;;;6.63;2.60;;;;;;;;;;5016153;28;20197;-76
2023/10/13 17:30:42;;;;;;;7.83;2.17;;;;;;;;;;5015935;28;20185;-76
2023/10/13 17:33:48;;;;;;;9.73;2.53;;;;;;;;;;5015890;28;20178;-76
2023/10/13 17:36:54;;;;;;;7.20;2.43;;;;;;;;;;5016250;28;20190;-76
2023/10/13 17:40:01;;;;;;;7.07;2.73;;;;;;;;;;5016150;28;20189;-76
2023/10/13 17:43:05;;;;;;;8.30;2.63;;;;;;;;;;5003577;28;20220;-76
2023/10/13 17:46:12;;;;;;;5.73;2.37;;;;;;;;;;4992745;28;20213;-75
2023/10/13 17:49:18;;;;;;;5.23;2.40;;;;;;;;;;5015736;28;20530;-77
2023/10/13 17:52:22;;;;;;;7.40;2.40;;;;;;;;;;5014787;28;20221;-75
2023/10/13 17:55:27;;;;;;;7.13;2.57;;;;;;;;;;5015004;28;20181;-74
2023/10/13 17:58:31;;;;;;;6.13;2.33;;;;;;;;;;5014999;28;20533;-75
2023/10/13 18:01:36;;;;;;;9.63;3.00;;;;;;;;;;5015089;28;20224;-75
2023/10/13 18:04:41;;;;;;;8.97;2.93;;;;;;;;;;5015309;28;20185;-76
2023/10/13 18:07:47;;;;;;;10.63;3.10;;;;;;;;;;5014107;28;20170;-76
2023/10/13 18:10:52;;;;;;;9.73;2.93;;;;;;;;;;5014810;28;20198;-76
2023/10/13 18:13:57;;;;;;;8.53;2.57;;;;;;;;;;5013521;28;20182;-76
2023/10/13 18:17:02;;;;;;;5.30;2.50;;;;;;;;;;5014053;28;20637;-76
2023/10/13 18:20:10;;;;;;;7.43;2.70;;;;;;;;;;5013717;28;20185;-77
2023/10/13 18:23:14;;;;;;;6.83;2.53;;;;;;;;;;5013897;28;20232;-78
2023/10/13 18:26:21;;;;;;;11.20;2.73;;;;;;;;;;5014091;28;20205;-77
2023/10/13 18:29:26;;;;;;;6.40;2.40;;;;;;;;;;5013802;28;20192;-77
2023/10/13 18:32:30;;;;;;;9.43;2.73;;;;;;;;;;5014854;28;20217;-77
2023/10/13 18:35:37;;;;;;;9.87;2.80;;;;;;;;;;5013955;28;20185;-77
2023/10/13 18:38:42;;;;;;;7.00;2.50;;;;;;;;;;5013736;28;20189;-77
2023/10/13 18:41:49;;;;;;;10.57;2.73;;;;;;;;;;5013868;28;20557;-77
2023/10/13 18:44:56;;;;;;;8.03;2.90;;;;;;;;;;5014336;28;20185;-77
2023/10/13 18:48:02;;;;;;;9.03;2.53;;;;;;;;;;5014706;28;20189;-77
2023/10/13 18:51:07;;;;;;;12.83;3.00;;;;;;;;;;5015211;28;20181;-77
2023/10/13 18:54:13;;;;;;;6.00;2.77;;;;;;;;;;5014475;28;20549;-77
2023/10/13 18:57:17;;;;;;;11.97;2.47;;;;;;;;;;5014146;28;20526;-76
2023/10/13 19:00:24;;;;;;;6.23;2.97;;;;;;;;;;5013565;28;20198;-77
2023/10/13 19:03:28;;;;;;;13.80;2.80;;;;;;;;;;5013957;28;20522;-77
2023/10/13 19:06:34;;;;;;;8.30;3.17;;;;;;;;;;5013135;28;20705;-77
2023/10/13 19:09:38;;;;;;;7.27;2.43;;;;;;;;;;5013998;28;20186;-77
2023/10/13 19:12:50;;;;;;;11.33;3.00;;;;;;;;;;5013813;28;20217;-77
2023/10/13 19:15:59;;;;;;;7.20;2.60;;;;;;;;;;5013963;28;20550;-77
2023/10/13 19:19:03;;;;;;;7.10;2.63;;;;;;;;;;5013107;28;20177;-77
2023/10/13 19:22:12;;;;;;;8.27;2.97;;;;;;;;;;5013800;28;20225;-77
2023/10/13 19:25:16;;;;;;;7.77;2.43;;;;;;;;;;5014172;28;20205;-77
2023/10/13 19:28:22;;;;;;;9.23;2.87;;;;;;;;;;5013239;28;20189;-77
2023/10/13 19:31:29;;;;;;;7.17;3.50;;;;;;;;;;5013192;28;20221;-77
2023/10/13 19:34:33;;;;;;;9.47;2.77;;;;;;;;;;5013899;28;20189;-77
2023/10/13 19:37:42;;;;;;;7.87;3.10;;;;;;;;;;5014319;28;20190;-77
2023/10/13 19:40:46;;;;;;;9.70;2.90;;;;;;;;;;5013992;28;20190;-76
2023/10/13 19:43:51;;;;;;;6.50;2.73;;;;;;;;;;5014085;28;20190;-75
2023/10/13 19:46:55;;;;;;;7.97;3.00;;;;;;;;;;5012844;28;20208;-75
2023/10/13 19:50:00;;;;;;;8.50;2.63;;;;;;;;;;5013537;28;20185;-75
2023/10/13 19:53:10;;;;;;;13.57;3.10;;;;;;;;;;5013329;28;20217;-75
2023/10/13 19:56:21;;;;;;;9.97;2.40;;;;;;;;;;5016936;28;20675;-74
2023/10/13 19:59:27;;;;;;;4.87;2.53;;;;;;;;;;5015912;28;20189;-75
2023/10/13 20:02:32;;;;;;;6.70;2.23;;;;;;;;;;5016934;28;20225;-75
2023/10/13 20:05:37;;;;;;;6.73;2.77;;;;;;;;;;5016229;28;20182;-76
2023/10/13 20:08:41;;;;;;;8.40;2.33;;;;;;;;;;5017191;28;20189;-75
2023/10/13 20:11:46;;;;;;;9.97;2.93;;;;;;;;;;5005145;28;20217;-76
2023/10/13 20:14:50;;;;;;;7.13;2.67;;;;;;;;;;5015773;28;20190;-75
2023/10/13 20:17:54;;;;;;;7.10;2.50;;;;;;;;;;5015856;28;20181;-77
2023/10/13 20:21:00;;;;;;;7.73;2.80;;;;;;;;;;5016155;28;20181;-77
2023/10/13 20:24:05;;;;;;;5.97;2.40;;;;;;;;;;5004518;28;20209;-77
2023/10/13 20:27:09;;;;;;;4.97;2.53;;;;;;;;;;5015918;28;20209;-77
2023/10/13 20:30:15;;;;;;;8.93;2.60;;;;;;;;;;5005367;28;20182;-77
2023/10/13 20:33:22;;;;;;;4.80;2.80;;;;;;;;;;5016684;28;20636;-77
2023/10/13 20:36:27;;;;;;;5.77;2.90;;;;;;;;;;5016732;28;20178;-77
2023/10/13 20:39:31;;;;;;;4.73;2.50;;;;;;;;;;5016491;28;20633;-79
2023/10/13 20:42:35;;;;;;;8.50;2.90;;;;;;;;;;5004819;28;20225;-77
2023/10/13 20:45:39;;;;;;;5.90;2.70;;;;;;;;;;5016801;28;20182;-77
2023/10/13 20:48:46;;;;;;;5.83;2.27;;;;;;;;;;5016601;28;20182;-78
2023/10/13 20:51:50;;;;;;;7.87;2.70;;;;;;;;;;5015864;28;20221;-77
2023/10/13 20:54:55;;;;;;;6.00;2.70;;;;;;;;;;5015891;28;20538;-77
2023/10/13 20:58:00;;;;;;;3.93;2.53;;;;;;;;;;5004481;28;20630;-78
2023/10/13 21:01:08;;;;;;;10.67;2.77;;;;;;;;;;5004210;28;20181;-77
2023/10/13 21:04:12;;;;;;;4.13;2.40;;;;;;;;;;4992268;28;20190;-77
2023/10/13 21:07:18;;;;;;;6.63;2.30;;;;;;;;;;5015668;28;20663;-77
2023/10/13 21:10:24;;;;;;;6.97;2.97;;;;;;;;;;5015176;28;20193;-76
2023/10/13 21:13:29;;;;;;;8.13;2.53;;;;;;;;;;5016136;28;20224;-77
2023/10/13 21:16:33;;;;;;;10.77;2.63;;;;;;;;;;5016030;28;20633;-76
2023/10/13 21:19:39;;;;;;;11.77;3.07;;;;;;;;;;5014994;28;20199;-76
2023/10/13 21:22:53;;;;;;;6.80;3.07;;;;;;;;;;5015802;28;20224;-76
2023/10/13 21:25:57;;;;;;;6.60;2.70;;;;;;;;;;5015739;28;20182;-76
2023/10/13 21:29:07;;;;;;;8.33;2.60;;;;;;;;;;5014768;28;20193;-75